Balneario Barra do Sul, Brazil
Current Conditions -  °F | °C
As of 11:00 PM on Friday 19 Dec 2014 (Local Time) from SBJV Reporting Station
Broken Clouds Broken Clouds  
Wind Chill: 73°   Ceiling: 3000
Heat Index: 73°   Visibility: 5mi
Dew Point: 73°   Wind: 3mph
Humidity: 100%   Direction: 200°SSW
Pressure: 29.83"   Gusts: NA
Location:  26.46°S, 48.61°W
Report Text: SBJV 200100Z 20003KT 8000 BKN030 23/23 Q1010
Loading
Personal Weather Stations






























Interactive Weather Map New forecast layout! Learn more

10-Day Weather Forecast

Advertisements
Track Severe Weather on mobile